Time,TemperatureF,DewpointF,PressureIn,WindDirection,WindDirectionDegrees,WindSpeedMPH,WindSpeedGustMPH,Humidity,HourlyPrecipIn,Conditions,Clouds,dailyrainin,SolarRadiationWatts/m^2,SoftwareType,DateUTC
2013-02-06 00:00:00,37.6,17.0,24.94,NE,51,1.0,2.0,44,0.00,,,0.00,0,weatherlink.com 1.10,2013-02-06 07:00:00,
2013-02-06 00:15:00,37.9,18.0,24.94,NE,51,0.0,5.0,44,0.00,,,0.00,0,weatherlink.com 1.10,2013-02-06 07:15:00,
2013-02-06 00:30:00,37.2,18.0,24.93,NE,51,0.0,2.0,45,0.00,,,0.00,0,weatherlink.com 1.10,2013-02-06 07:30:00,
2013-02-06 00:45:00,35.6,17.0,24.93,NE,47,2.0,5.0,47,0.00,,,0.00,0,weatherlink.com 1.10,2013-02-06 07:45:00,
2013-02-06 01:00:00,34.5,17.0,24.93,NE,46,2.0,4.0,50,0.00,,,0.00,0,weatherlink.com 1.10,2013-02-06 08:00:00,
2013-02-06 01:15:00,34.7,18.0,24.93,NE,46,0.0,3.0,51,0.00,,,0.00,0,weatherlink.com 1.10,2013-02-06 08:15:00,
2013-02-06 01:30:00,34.8,18.0,24.93,NE,46,0.0,4.0,51,0.00,,,0.00,0,weatherlink.com 1.10,2013-02-06 08:30:00,
2013-02-06 01:45:00,34.7,18.0,24.92,NE,46,3.0,4.0,51,0.00,,,0.00,0,weatherlink.com 1.10,2013-02-06 08:45:00,
2013-02-06 02:00:00,34.9,19.0,24.92,NE,41,5.0,6.0,52,0.00,,,0.00,0,weatherlink.com 1.10,2013-02-06 09:00:00,
2013-02-06 02:16:00,34.1,18.0,24.91,North,11,2.0,6.0,52,0.00,,,0.00,0,weatherlink.com 1.10,2013-02-06 09:16:00,
2013-02-06 02:31:00,32.8,18.0,24.91,North,10,4.0,5.0,54,0.00,,,0.00,0,weatherlink.com 1.10,2013-02-06 09:31:00,
2013-02-06 02:46:00,31.2,18.0,24.91,North,355,2.0,5.0,58,0.00,,,0.00,0,weatherlink.com 1.10,2013-02-06 09:46:00,
2013-02-06 03:01:00,30.6,18.0,24.91,North,355,3.0,4.0,59,0.00,,,0.00,0,weatherlink.com 1.10,2013-02-06 10:01:00,
2013-02-06 03:16:00,30.9,18.0,24.91,NNE,17,2.0,6.0,59,0.00,,,0.00,0,weatherlink.com 1.10,2013-02-06 10:16:00,
2013-02-06 03:31:00,31.2,17.0,24.91,NNE,22,4.0,7.0,57,0.00,,,0.00,0,weatherlink.com 1.10,2013-02-06 10:31:00,
2013-02-06 03:46:00,31.9,17.0,24.91,NNE,16,4.0,9.0,54,0.00,,,0.00,0,weatherlink.com 1.10,2013-02-06 10:46:00,
2013-02-06 04:01:00,31.9,17.0,24.91,NNE,22,5.0,8.0,55,0.00,,,0.00,0,weatherlink.com 1.10,2013-02-06 11:01:00,
2013-02-06 04:16:00,31.7,17.0,24.90,North,10,3.0,6.0,55,0.00,,,0.00,0,weatherlink.com 1.10,2013-02-06 11:16:00,
2013-02-06 04:31:00,29.7,16.0,24.90,North,5,4.0,6.0,58,0.00,,,0.00,0,weatherlink.com 1.10,2013-02-06 11:31:00,
2013-02-06 04:46:00,29.3,17.0,24.90,North,5,2.0,4.0,60,0.00,,,0.00,0,weatherlink.com 1.10,2013-02-06 11:46:00,
2013-02-06 05:01:00,29.0,17.0,24.90,North,5,2.0,3.0,61,0.00,,,0.00,0,weatherlink.com 1.10,2013-02-06 12:01:00,
2013-02-06 05:16:00,28.8,17.0,24.89,North,5,1.0,4.0,61,0.00,,,0.00,0,weatherlink.com 1.10,2013-02-06 12:16:00,
2013-02-06 05:31:00,28.7,17.0,24.90,North,5,1.0,3.0,61,0.00,,,0.00,0,weatherlink.com 1.10,2013-02-06 12:31:00,
2013-02-06 05:46:00,28.7,17.0,24.90,North,5,0.0,4.0,61,0.00,,,0.00,0,weatherlink.com 1.10,2013-02-06 12:46:00,
2013-02-06 06:01:00,28.6,17.0,24.90,North,5,0.0,2.0,62,0.00,,,0.00,0,weatherlink.com 1.10,2013-02-06 13:01:00,
2013-02-06 06:16:00,28.3,16.0,24.90,North,5,2.0,5.0,61,0.00,,,0.00,0,weatherlink.com 1.10,2013-02-06 13:16:00,
2013-02-06 06:31:00,27.6,16.0,24.90,North,5,2.0,4.0,63,0.00,,,0.00,0,weatherlink.com 1.10,2013-02-06 13:31:00,
2013-02-06 06:46:00,27.3,17.0,24.91,North,5,2.0,3.0,64,0.00,,,0.00,0,weatherlink.com 1.10,2013-02-06 13:46:00,
2013-02-06 07:01:00,27.4,17.0,24.91,North,5,2.0,3.0,64,0.00,,,0.00,5,weatherlink.com 1.10,2013-02-06 14:01:00,
2013-02-06 07:16:00,27.4,17.0,24.92,North,5,1.0,2.0,64,0.00,,,0.00,11,weatherlink.com 1.10,2013-02-06 14:16:00,
2013-02-06 07:31:00,28.0,17.0,24.91,North,5,2.0,4.0,63,0.00,,,0.00,49,weatherlink.com 1.10,2013-02-06 14:31:00,
2013-02-06 07:46:00,28.9,17.0,24.92,North,360,1.0,4.0,61,0.00,,,0.00,98,weatherlink.com 1.10,2013-02-06 14:46:00,
2013-02-06 08:01:00,29.0,17.0,24.92,North,360,2.0,6.0,60,0.00,,,0.00,155,weatherlink.com 1.10,2013-02-06 15:01:00,
2013-02-06 08:17:00,30.1,17.0,24.93,WNW,303,1.0,3.0,59,0.00,,,0.00,204,weatherlink.com 1.10,2013-02-06 15:17:00,
2013-02-06 08:32:00,32.1,18.0,24.93,NNW,340,0.0,1.0,56,0.00,,,0.00,250,weatherlink.com 1.10,2013-02-06 15:32:00,
2013-02-06 08:47:00,34.1,18.0,24.92,NNW,340,0.0,1.0,52,0.00,,,0.00,294,weatherlink.com 1.10,2013-02-06 15:47:00,
2013-02-06 09:02:00,35.0,18.0,24.93,West,261,1.0,3.0,51,0.00,,,0.00,336,weatherlink.com 1.10,2013-02-06 16:02:00,
2013-02-06 09:17:00,36.9,19.0,24.93,West,263,1.0,3.0,49,0.00,,,0.00,380,weatherlink.com 1.10,2013-02-06 16:17:00,
2013-02-06 09:32:00,38.7,19.0,24.93,SW,227,1.0,4.0,46,0.00,,,0.00,420,weatherlink.com 1.10,2013-02-06 16:32:00,
2013-02-06 09:47:00,40.7,20.0,24.92,WSW,245,2.0,5.0,43,0.00,,,0.00,459,weatherlink.com 1.10,2013-02-06 16:47:00,
2013-02-06 10:02:00,42.4,20.0,24.93,SSW,208,4.0,6.0,41,0.00,,,0.00,492,weatherlink.com 1.10,2013-02-06 17:02:00,
2013-02-06 10:17:00,44.0,20.0,24.93,South,190,2.0,7.0,39,0.00,,,0.00,534,weatherlink.com 1.10,2013-02-06 17:17:00,
2013-02-06 10:32:00,45.9,20.0,24.92,SW,221,1.0,5.0,36,0.00,,,0.00,573,weatherlink.com 1.10,2013-02-06 17:32:00,
2013-02-06 10:47:00,47.3,21.0,24.91,SSW,207,1.0,5.0,35,0.00,,,0.00,255,weatherlink.com 1.10,2013-02-06 17:47:00,
2013-02-06 11:02:00,48.7,21.0,24.91,South,190,3.0,5.0,33,0.00,,,0.00,629,weatherlink.com 1.10,2013-02-06 18:02:00,
2013-02-06 11:17:00,49.9,21.0,24.91,SSW,199,4.0,11.0,32,0.00,,,0.00,633,weatherlink.com 1.10,2013-02-06 18:17:00,
2013-02-06 11:33:00,51.2,21.0,24.90,SW,228,8.0,12.0,31,0.00,,,0.00,647,weatherlink.com 1.10,2013-02-06 18:33:00,
2013-02-06 11:48:00,52.4,22.0,24.89,SW,227,6.0,11.0,31,0.00,,,0.00,628,weatherlink.com 1.10,2013-02-06 18:48:00,
2013-02-06 12:03:00,52.8,22.0,24.89,SSW,192,5.0,9.0,30,0.00,,,0.00,613,weatherlink.com 1.10,2013-02-06 19:03:00,
2013-02-06 12:18:00,53.3,22.0,24.88,SSE,167,3.0,8.0,30,0.00,,,0.00,673,weatherlink.com 1.10,2013-02-06 19:18:00,
2013-02-06 12:33:00,54.8,23.0,24.86,ESE,107,3.0,9.0,29,0.00,,,0.00,758,weatherlink.com 1.10,2013-02-06 19:33:00,
2013-02-06 12:48:00,55.8,25.0,24.85,SSE,165,5.0,10.0,30,0.00,,,0.00,387,weatherlink.com 1.10,2013-02-06 19:48:00,
2013-02-06 13:03:00,56.5,25.0,24.84,South,187,5.0,10.0,30,0.00,,,0.00,673,weatherlink.com 1.10,2013-02-06 20:03:00,
2013-02-06 13:18:00,57.2,26.0,24.84,SE,136,3.0,9.0,30,0.00,,,0.00,617,weatherlink.com 1.10,2013-02-06 20:18:00,
2013-02-06 13:33:00,58.1,27.0,24.83,SSE,148,3.0,7.0,30,0.00,,,0.00,617,weatherlink.com 1.10,2013-02-06 20:33:00,
2013-02-06 13:48:00,58.4,28.0,24.82,South,187,7.0,7.0,31,0.00,,,0.00,652,weatherlink.com 1.10,2013-02-06 20:48:00,
2013-02-06 14:03:00,58.2,28.0,24.81,SE,127,5.0,7.0,31,0.00,,,0.00,659,weatherlink.com 1.10,2013-02-06 21:03:00,
2013-02-06 14:18:00,58.6,29.0,24.81,South,173,3.0,9.0,32,0.00,,,0.00,209,weatherlink.com 1.10,2013-02-06 21:18:00,
2013-02-06 14:33:00,59.4,29.0,24.80,SSE,163,1.0,7.0,31,0.00,,,0.00,294,weatherlink.com 1.10,2013-02-06 21:33:00,
2013-02-06 14:48:00,60.8,27.0,24.80,WSW,250,5.0,9.0,28,0.00,,,0.00,257,weatherlink.com 1.10,2013-02-06 21:48:00,
2013-02-06 15:03:00,60.8,27.0,24.80,West,281,5.0,15.0,28,0.00,,,0.00,200,weatherlink.com 1.10,2013-02-06 22:03:00,
2013-02-06 15:18:00,61.2,28.0,24.80,SW,223,6.0,14.0,28,0.00,,,0.00,207,weatherlink.com 1.10,2013-02-06 22:18:00,
2013-02-06 15:33:00,61.3,27.0,24.80,WSW,257,12.0,19.0,27,0.00,,,0.00,404,weatherlink.com 1.10,2013-02-06 22:33:00,
2013-02-06 15:48:00,61.3,27.0,24.80,WSW,241,10.0,17.0,27,0.00,,,0.00,244,weatherlink.com 1.10,2013-02-06 22:48:00,
2013-02-06 16:03:00,60.0,27.0,24.80,SW,235,10.0,17.0,28,0.00,,,0.00,169,weatherlink.com 1.10,2013-02-06 23:03:00,
2013-02-06 16:18:00,59.5,28.0,24.81,SSW,208,5.0,11.0,30,0.00,,,0.00,130,weatherlink.com 1.10,2013-02-06 23:18:00,
2013-02-06 16:33:00,59.3,28.0,24.81,SW,225,6.0,10.0,31,0.00,,,0.00,104,weatherlink.com 1.10,2013-02-06 23:33:00,
2013-02-06 16:49:00,59.2,28.0,24.81,SW,232,5.0,9.0,31,0.00,,,0.00,77,weatherlink.com 1.10,2013-02-06 23:49:00,
2013-02-06 17:04:00,58.9,28.0,24.81,SSW,211,4.0,13.0,31,0.00,,,0.00,37,weatherlink.com 1.10,2013-02-07 00:04:00,
2013-02-06 17:19:00,58.8,28.0,24.81,West,276,7.0,7.0,31,0.00,,,0.00,19,weatherlink.com 1.10,2013-02-07 00:19:00,
2013-02-06 17:34:00,58.7,25.0,24.82,NW,322,6.0,13.0,27,0.00,,,0.00,11,weatherlink.com 1.10,2013-02-07 00:34:00,
2013-02-06 17:49:00,58.0,24.0,24.82,NW,323,9.0,13.0,27,0.00,,,0.00,0,weatherlink.com 1.10,2013-02-07 00:49:00,
2013-02-06 18:04:00,57.3,23.0,24.83,NW,319,2.0,8.0,27,0.00,,,0.00,0,weatherlink.com 1.10,2013-02-07 01:04:00,
2013-02-06 18:19:00,56.7,24.0,24.84,NW,324,6.0,10.0,28,0.00,,,0.00,0,weatherlink.com 1.10,2013-02-07 01:19:00,
2013-02-06 18:34:00,56.1,23.0,24.84,NW,314,1.0,10.0,28,0.00,,,0.00,0,weatherlink.com 1.10,2013-02-07 01:34:00,
2013-02-06 18:49:00,55.4,23.0,24.85,NNW,329,7.0,10.0,29,0.00,,,0.00,0,weatherlink.com 1.10,2013-02-07 01:49:00,
2013-02-06 19:04:00,55.1,23.0,24.85,North,350,8.0,12.0,29,0.00,,,0.00,0,weatherlink.com 1.10,2013-02-07 02:04:00,
2013-02-06 19:19:00,54.7,23.0,24.86,NW,304,5.0,9.0,29,0.00,,,0.00,0,weatherlink.com 1.10,2013-02-07 02:19:00,
2013-02-06 19:34:00,53.9,23.0,24.86,NNW,331,3.0,8.0,30,0.00,,,0.00,0,weatherlink.com 1.10,2013-02-07 02:34:00,
2013-02-06 19:49:00,53.3,23.0,24.86,NNW,328,8.0,12.0,31,0.00,,,0.00,0,weatherlink.com 1.10,2013-02-07 02:49:00,
2013-02-06 20:04:00,52.7,23.0,24.87,NNW,336,3.0,13.0,32,0.00,,,0.00,0,weatherlink.com 1.10,2013-02-07 03:04:00,
2013-02-06 20:19:00,52.2,23.0,24.88,North,360,5.0,12.0,32,0.00,,,0.00,0,weatherlink.com 1.10,2013-02-07 03:19:00,
2013-02-06 20:34:00,51.7,23.0,24.89,NNW,346,2.0,9.0,33,0.00,,,0.00,0,weatherlink.com 1.10,2013-02-07 03:34:00,
2013-02-06 20:49:00,51.5,24.0,24.89,NNW,340,3.0,10.0,34,0.00,,,0.00,0,weatherlink.com 1.10,2013-02-07 03:49:00,
2013-02-06 21:04:00,50.9,24.0,24.89,NNW,334,2.0,6.0,35,0.00,,,0.00,0,weatherlink.com 1.10,2013-02-07 04:04:00,
2013-02-06 21:19:00,50.2,24.0,24.90,NE,38,4.0,6.0,36,0.00,,,0.00,0,weatherlink.com 1.10,2013-02-07 04:19:00,
2013-02-06 21:34:00,49.8,24.0,24.90,North,9,3.0,7.0,36,0.00,,,0.00,0,weatherlink.com 1.10,2013-02-07 04:34:00,
2013-02-06 21:49:00,49.2,24.0,24.90,NNE,18,3.0,6.0,37,0.00,,,0.00,0,weatherlink.com 1.10,2013-02-07 04:49:00,
2013-02-06 22:04:00,48.6,24.0,24.91,North,5,2.0,5.0,38,0.00,,,0.00,0,weatherlink.com 1.10,2013-02-07 05:04:00,
2013-02-06 22:19:00,47.8,24.0,24.91,North,9,1.0,4.0,39,0.00,,,0.00,0,weatherlink.com 1.10,2013-02-07 05:19:00,
2013-02-06 22:34:00,46.5,24.0,24.91,NNE,13,3.0,4.0,41,0.00,,,0.00,0,weatherlink.com 1.10,2013-02-07 05:34:00,
2013-02-06 22:49:00,46.0,24.0,24.92,North,351,1.0,4.0,42,0.00,,,0.00,0,weatherlink.com 1.10,2013-02-07 05:49:00,
2013-02-06 23:04:00,45.6,25.0,24.92,NNW,347,0.0,5.0,44,0.00,,,0.00,0,weatherlink.com 1.10,2013-02-07 06:04:00,
2013-02-06 23:19:00,45.3,24.0,24.93,North,5,3.0,7.0,44,0.00,,,0.00,0,weatherlink.com 1.10,2013-02-07 06:19:00,
2013-02-06 23:34:00,46.0,25.0,24.93,North,5,4.0,8.0,44,0.00,,,0.00,0,weatherlink.com 1.10,2013-02-07 06:34:00,
2013-02-06 23:49:00,45.8,25.0,24.93,North,360,3.0,6.0,44,0.00,,,0.00,0,weatherlink.com 1.10,2013-02-07 06:49:00,